createdAt,value
2023-03-05T00:04:45.774Z,7.90
2023-03-05T00:07:48.905Z,10.10
2023-03-05T00:11:01.398Z,12.63
2023-03-05T00:14:04.154Z,7.57
2023-03-05T00:17:05.791Z,10.57
2023-03-05T00:20:08.247Z,7.97
2023-03-05T00:23:09.876Z,9.77
2023-03-05T00:26:11.725Z,8.38
2023-03-05T00:29:16.140Z,9.43
2023-03-05T00:32:17.906Z,8.80
2023-03-05T00:35:19.973Z,7.28
2023-03-05T00:38:21.635Z,8.30
2023-03-05T00:41:23.404Z,13.70
2023-03-05T00:44:28.187Z,8.57
2023-03-05T00:47:29.809Z,9.63
2023-03-05T00:50:31.484Z,9.30
2023-03-05T00:53:33.173Z,9.48
2023-03-05T00:56:35.344Z,6.15
2023-03-05T00:59:37.331Z,6.32
2023-03-05T01:02:39.011Z,9.77
2023-03-05T01:05:40.863Z,6.85
2023-03-05T01:08:42.936Z,10.00
2023-03-05T01:11:44.667Z,8.02
2023-03-05T01:14:49.356Z,8.40
2023-03-05T07:58:00.697Z,13.75
2023-03-05T08:01:02.396Z,10.98
2023-03-05T08:04:04.743Z,6.30
2023-03-05T08:07:06.582Z,11.48
2023-03-05T08:10:09.352Z,13.68
2023-03-05T08:13:10.989Z,10.07
2023-03-05T08:16:14.855Z,13.98
2023-03-05T08:19:16.628Z,9.18
2023-03-05T08:22:20.448Z,10.48
2023-03-05T08:25:22.271Z,14.05
2023-03-05T08:28:24.294Z,16.08
2023-03-05T08:31:26.725Z,11.40
2023-03-05T08:34:28.445Z,9.30
2023-03-05T08:37:30.877Z,12.25
2023-03-05T08:40:32.522Z,13.25
2023-03-05T08:43:34.497Z,11.30
2023-03-05T08:46:36.934Z,12.95
2023-03-05T08:49:38.731Z,9.52
2023-03-05T08:52:40.374Z,14.40
2023-03-05T08:55:44.100Z,12.48
2023-03-05T08:58:49.279Z,10.25
2023-03-05T09:01:50.973Z,9.50
2023-03-05T09:04:52.710Z,11.38
2023-03-05T09:07:54.544Z,8.93
2023-03-05T09:10:56.320Z,10.65
2023-03-05T09:13:58.026Z,12.00
2023-03-05T09:16:59.854Z,11.77
2023-03-05T09:20:01.863Z,15.57
2023-03-05T09:23:03.767Z,9.13
2023-03-05T09:26:06.812Z,12.65
2023-03-05T09:29:09.227Z,15.40
2023-03-05T09:32:10.989Z,10.93
2023-03-05T09:35:12.732Z,13.20
2023-03-05T09:38:14.664Z,11.38
2023-03-05T09:41:27.081Z,15.32
2023-03-05T09:44:43.353Z,14.13
2023-03-05T09:48:01.526Z,15.02
2023-03-05T09:51:04.120Z,11.20
2023-03-05T09:54:20.405Z,12.95
2023-03-05T09:57:45.337Z,19.13
2023-03-05T10:01:01.977Z,14.48
2023-03-05T10:04:14.242Z,15.02
2023-03-05T10:07:21.812Z,17.02
2023-03-05T10:10:33.020Z,13.38
2023-03-05T10:13:38.119Z,19.15
2023-03-05T10:16:46.630Z,15.02
2023-03-05T10:19:54.174Z,13.73
2023-03-05T10:23:07.825Z,15.80
2023-03-05T10:26:15.183Z,13.52
2023-03-05T10:29:24.300Z,16.45
2023-03-05T10:32:52.011Z,19.25
2023-03-05T10:36:00.494Z,16.13
2023-03-05T10:39:27.164Z,17.40
2023-03-05T10:42:51.064Z,13.73
2023-03-05T10:45:53.870Z,17.55
2023-03-05T10:48:58.660Z,16.52
2023-03-05T10:52:17.552Z,16.92
2023-03-05T10:55:21.638Z,18.85
2023-03-05T10:58:24.779Z,21.88
2023-03-05T11:01:28.563Z,15.65
2023-03-05T11:04:32.181Z,15.32
2023-03-05T11:07:34.971Z,24.98
2023-03-05T11:10:36.616Z,18.25
2023-03-05T11:13:52.865Z,18.00
2023-03-05T11:16:54.641Z,18.90
2023-03-05T11:19:57.391Z,16.80
2023-03-05T11:23:21.023Z,19.58
2023-03-05T11:26:23.126Z,20.95
2023-03-05T11:29:26.985Z,15.95
2023-03-05T11:32:28.840Z,15.15
2023-03-05T11:35:32.560Z,19.23
2023-03-05T11:42:02.266Z,18.70
2023-03-05T11:45:04.188Z,16.25
2023-03-05T11:48:15.434Z,16.10
2023-03-05T11:51:26.345Z,16.08
2023-03-05T11:54:36.874Z,20.35
2023-03-05T11:58:01.553Z,15.30
2023-03-05T12:01:03.741Z,20.73
2023-03-05T12:04:05.558Z,24.50
2023-03-05T12:07:07.371Z,19.85
2023-03-05T12:10:18.916Z,23.25
2023-03-05T12:13:43.928Z,21.27
2023-03-05T12:17:10.090Z,19.85
2023-03-05T12:20:18.058Z,18.38
2023-03-05T12:23:21.185Z,21.75
2023-03-05T12:26:57.859Z,16.40
2023-03-05T12:30:01.787Z,20.23
2023-03-05T12:33:04.906Z,20.95
2023-03-05T12:36:22.106Z,20.05
2023-03-05T12:39:49.461Z,23.90
2023-03-05T12:43:03.832Z,21.88
2023-03-05T12:46:25.745Z,22.60
2023-03-05T12:52:35.823Z,23.13
2023-03-05T12:55:47.309Z,22.27
2023-03-05T12:58:53.118Z,19.42
2023-03-05T13:02:00.020Z,18.92
2023-03-05T13:05:04.864Z,17.98
2023-03-05T13:08:18.966Z,20.58
2023-03-05T13:11:20.881Z,18.77
2023-03-05T13:14:42.007Z,18.95
2023-03-05T13:18:02.080Z,20.73
2023-03-05T13:21:08.762Z,18.52
2023-03-05T13:24:17.955Z,17.27
2023-03-05T13:27:30.079Z,15.20
2023-03-05T13:30:33.669Z,18.77
2023-03-05T13:33:36.344Z,14.35
2023-03-05T13:36:38.476Z,22.02
2023-03-05T13:40:01.853Z,21.50
2023-03-05T13:43:13.658Z,15.95
2023-03-05T13:46:27.105Z,18.55
2023-03-05T13:49:28.963Z,15.02
2023-03-05T13:52:35.063Z,14.45
2023-03-05T13:55:36.733Z,16.52
2023-03-05T13:58:54.505Z,10.65
2023-03-05T14:01:57.688Z,11.10
2023-03-05T14:04:59.530Z,12.68
2023-03-05T14:08:01.249Z,13.52
2023-03-05T14:11:15.587Z,11.80
2023-03-05T14:14:17.785Z,12.40
2023-03-05T14:17:35.210Z,12.52
2023-03-05T14:20:36.985Z,13.52
2023-03-05T14:23:43.012Z,13.63
2023-03-05T14:26:52.823Z,11.18
2023-03-05T14:32:56.465Z,11.00
2023-03-05T14:35:59.570Z,12.77
2023-03-05T14:39:02.083Z,13.13
2023-03-05T14:42:14.280Z,9.13
2023-03-05T14:45:17.835Z,12.70
2023-03-05T14:48:19.690Z,14.50
2023-03-05T14:51:21.959Z,17.13
2023-03-05T14:54:24.735Z,13.95
2023-03-05T14:57:27.713Z,14.20
2023-03-05T15:00:29.430Z,9.13
2023-03-05T15:03:32.924Z,14.43
2023-03-05T15:06:37.956Z,13.25
2023-03-05T15:09:39.614Z,12.90
2023-03-05T15:12:42.367Z,11.68
2023-03-05T15:15:44.423Z,13.82
2023-03-05T15:18:46.148Z,9.75
2023-03-05T15:21:47.969Z,11.18
2023-03-05T15:24:49.602Z,9.43
2023-03-05T15:27:51.365Z,13.60
2023-03-05T15:30:53.076Z,14.23
2023-03-05T15:33:54.728Z,10.98
2023-03-05T15:36:56.720Z,12.15
2023-03-05T15:39:58.340Z,15.05
2023-03-05T15:43:00.178Z,8.57
2023-03-05T15:46:02.129Z,11.45
2023-03-05T15:49:03.992Z,8.55
2023-03-05T15:52:05.758Z,11.85
2023-03-05T15:55:08.275Z,12.60
2023-03-05T15:58:12.259Z,9.65
2023-03-05T16:01:15.461Z,13.57
2023-03-05T16:04:17.356Z,14.10
2023-03-05T16:07:20.323Z,14.40
2023-03-05T16:10:25.595Z,10.48
2023-03-05T16:13:29.181Z,13.18
2023-03-05T16:16:32.259Z,9.70
2023-03-05T16:19:35.320Z,12.70
2023-03-05T16:22:36.963Z,13.18
2023-03-05T16:25:38.623Z,7.57
2023-03-05T16:28:40.325Z,11.45
2023-03-05T16:31:43.194Z,8.45
2023-03-05T16:34:46.519Z,14.02
2023-03-05T16:37:48.189Z,15.80
2023-03-05T16:41:07.248Z,10.63
2023-03-05T16:44:10.856Z,14.30
2023-03-05T16:47:12.885Z,10.25
2023-03-05T16:50:14.523Z,14.35
2023-03-05T16:53:16.160Z,12.38
2023-03-05T16:56:18.234Z,12.38
2023-03-05T16:59:20.066Z,15.23
2023-03-05T17:02:22.100Z,15.20
2023-03-05T17:05:28.078Z,13.77
2023-03-05T17:08:29.907Z,13.43
2023-03-05T17:11:31.878Z,14.68
2023-03-05T17:14:33.507Z,14.55
2023-03-05T17:17:35.519Z,14.85
2023-03-05T17:20:37.155Z,10.82
2023-03-05T17:23:39.072Z,12.45
2023-03-05T17:26:40.746Z,12.30
2023-03-05T17:29:42.860Z,12.35
2023-03-05T17:32:44.651Z,13.50
2023-03-05T17:35:47.190Z,10.38
2023-03-05T17:38:49.301Z,14.65
2023-03-05T17:41:50.960Z,14.45
2023-03-05T17:44:52.687Z,16.05
2023-03-05T17:47:55.161Z,12.73
2023-03-05T17:50:57.302Z,14.50
2023-03-05T17:53:58.997Z,11.77
2023-03-05T17:57:01.268Z,10.63
2023-03-05T18:00:08.990Z,11.45
2023-03-05T18:03:10.715Z,10.52
2023-03-05T18:06:12.704Z,8.32
2023-03-05T18:09:14.418Z,6.20
2023-03-05T18:12:16.260Z,6.28
2023-03-05T18:15:19.022Z,6.93
2023-03-05T18:18:21.163Z,9.43
2023-03-05T18:21:24.005Z,9.05
2023-03-05T18:24:25.702Z,5.50
2023-03-05T18:27:27.465Z,8.18
2023-03-05T18:30:29.408Z,10.25
2023-03-05T18:33:32.674Z,8.57
2023-03-05T18:36:34.758Z,8.30
2023-03-05T18:39:36.475Z,11.68
2023-03-05T18:42:38.250Z,11.10
2023-03-05T18:45:39.962Z,12.68
2023-03-05T18:48:41.797Z,8.95
2023-03-05T18:51:43.508Z,7.05
2023-03-05T18:54:45.175Z,10.00
2023-03-05T18:57:47.034Z,9.82
2023-03-05T19:00:48.798Z,9.23
2023-03-05T19:03:50.567Z,6.60
2023-03-05T19:06:52.307Z,6.93
2023-03-05T19:10:02.152Z,7.22
2023-03-05T19:13:39.568Z,8.50
2023-03-05T19:16:44.030Z,11.05
2023-03-05T19:19:55.228Z,9.38
2023-03-05T19:22:56.911Z,7.97
2023-03-05T19:26:01.151Z,8.55
2023-03-05T19:29:03.635Z,8.88
2023-03-05T19:32:05.574Z,8.25
2023-03-05T19:35:07.623Z,7.95
2023-03-05T19:38:09.476Z,6.10
2023-03-05T19:41:12.890Z,9.85
2023-03-05T19:44:14.705Z,4.65
2023-03-05T19:47:16.557Z,11.25
2023-03-05T19:50:18.329Z,9.32
2023-03-05T19:53:19.965Z,7.55
2023-03-05T19:56:21.748Z,8.98
2023-03-05T19:59:24.297Z,6.60
2023-03-05T20:02:25.984Z,5.68
2023-03-05T20:05:27.698Z,3.95
2023-03-05T20:08:29.673Z,6.30
2023-03-05T20:11:31.359Z,6.05
2023-03-05T20:14:33.899Z,7.10
2023-03-05T20:17:35.690Z,8.48
2023-03-05T20:20:37.346Z,6.20
2023-03-05T20:23:40.020Z,5.13
2023-03-05T20:26:42.453Z,7.80
2023-03-05T20:29:44.080Z,8.70
2023-03-05T20:32:45.953Z,6.55
2023-03-05T20:35:47.828Z,8.02
2023-03-05T20:38:49.593Z,7.65
2023-03-05T20:41:51.376Z,6.55
2023-03-05T20:44:53.524Z,7.95
2023-03-05T20:47:55.283Z,9.98
2023-03-05T20:50:57.137Z,7.18
2023-03-05T20:54:02.442Z,10.18
2023-03-05T20:57:04.313Z,9.10
2023-03-05T21:00:06.789Z,8.63
2023-03-05T21:03:09.759Z,7.55
2023-03-05T21:06:11.721Z,7.63
2023-03-05T21:09:13.381Z,7.55
2023-03-05T21:12:15.041Z,5.72
2023-03-05T21:15:19.107Z,7.45
2023-03-05T21:18:20.974Z,6.53
